Time,TemperatureF,DewpointF,PressureIn,WindDirection,WindDirectionDegrees,WindSpeedMPH,WindSpeedGustMPH,Humidity,HourlyPrecipIn,Conditions,Clouds,dailyrainin,SoftwareType,DateUTC
2013-12-29 00:01:00,45.7,30.9,30.01,SW,225,0.0,3.0,56,0.00,,---,0.00,VWS V14.01,2013-12-29 08:01:00,
2013-12-29 00:06:00,45.8,31.0,30.01,SW,223,0.0,0.0,56,0.00,,---,0.00,VWS V14.01,2013-12-29 08:06:00,
2013-12-29 00:11:00,45.8,31.0,30.01,SW,224,2.0,3.0,56,0.00,,---,0.00,VWS V14.01,2013-12-29 08:11:00,
2013-12-29 00:16:00,45.5,30.7,30.01,SW,223,0.0,3.0,56,0.00,,---,0.00,VWS V14.01,2013-12-29 08:16:00,
2013-12-29 00:21:00,45.1,30.8,30.01,SW,223,0.0,3.0,57,0.00,,---,0.00,VWS V14.01,2013-12-29 08:21:00,
2013-12-29 00:26:00,44.8,30.5,30.01,SW,223,0.0,3.0,57,0.00,,---,0.00,VWS V14.01,2013-12-29 08:26:00,
2013-12-29 00:31:00,44.6,30.3,30.01,SW,223,0.0,3.0,57,0.00,,---,0.00,VWS V14.01,2013-12-29 08:31:00,
2013-12-29 00:36:00,44.3,30.5,30.00,SW,223,0.0,0.0,58,0.00,,---,0.00,VWS V14.01,2013-12-29 08:36:00,
2013-12-29 00:41:00,44.3,30.5,30.00,SW,223,0.0,0.0,58,0.00,,---,0.00,VWS V14.01,2013-12-29 08:41:00,
2013-12-29 00:46:00,44.5,30.0,30.00,SW,223,0.0,-999.0,57,-99.99,,,0.00,weatherlink.com 1.10,2013-12-29 08:46:00,
2013-12-29 00:51:00,44.6,30.3,30.01,SW,223,0.0,0.0,57,0.00,,---,0.00,VWS V14.01,2013-12-29 08:51:00,
2013-12-29 00:56:00,44.8,30.5,30.01,SW,223,0.0,0.0,57,0.00,,---,0.00,VWS V14.01,2013-12-29 08:56:00,
2013-12-29 01:02:00,44.6,30.3,30.01,SW,223,0.0,0.0,57,0.00,,---,0.00,VWS V14.01,2013-12-29 09:02:00,
2013-12-29 01:07:00,44.6,30.3,30.00,SW,223,0.0,0.0,57,0.00,,---,0.00,VWS V14.01,2013-12-29 09:07:00,
2013-12-29 01:12:00,44.6,29.9,30.00,SW,223,0.0,0.0,56,0.00,,---,0.00,VWS V14.01,2013-12-29 09:12:00,
2013-12-29 01:17:00,44.6,30.3,30.00,SW,223,0.0,0.0,57,0.00,,---,0.00,VWS V14.01,2013-12-29 09:17:00,
2013-12-29 01:22:00,44.9,30.2,30.01,SW,223,0.0,0.0,56,0.00,,---,0.00,VWS V14.01,2013-12-29 09:22:00,
2013-12-29 01:27:00,45.4,29.7,30.01,SSW,212,0.0,0.0,54,0.00,,---,0.00,VWS V14.01,2013-12-29 09:27:00,
2013-12-29 01:32:00,46.0,29.8,30.01,SSW,208,0.0,0.0,53,0.00,,---,0.00,VWS V14.01,2013-12-29 09:32:00,
2013-12-29 01:37:00,46.5,29.8,30.01,SE,124,0.0,0.0,52,0.00,,---,0.00,VWS V14.01,2013-12-29 09:37:00,
2013-12-29 01:42:00,46.7,30.5,30.01,SE,124,0.0,0.0,53,0.00,,---,0.00,VWS V14.01,2013-12-29 09:42:00,
2013-12-29 01:47:00,46.4,30.2,30.02,SE,124,0.0,0.0,53,0.00,,---,0.00,VWS V14.01,2013-12-29 09:47:00,
2013-12-29 01:52:00,46.7,29.5,30.02,ENE,74,2.0,4.0,51,0.00,,---,0.00,VWS V14.01,2013-12-29 09:52:00,
2013-12-29 01:57:00,48.0,29.3,30.02,East,89,6.0,6.0,48,0.00,,---,0.00,VWS V14.01,2013-12-29 09:57:00,
2013-12-29 02:02:00,49.6,28.6,30.02,ENE,69,5.0,7.0,44,0.00,,---,0.00,VWS V14.01,2013-12-29 10:02:00,
2013-12-29 02:07:00,50.4,29.3,30.02,ENE,65,5.0,5.0,44,0.00,,---,0.00,VWS V14.01,2013-12-29 10:07:00,
2013-12-29 02:13:00,50.4,28.8,30.02,ENE,69,0.0,5.0,43,0.00,,---,0.00,VWS V14.01,2013-12-29 10:13:00,
2013-12-29 02:18:00,50.4,29.3,30.02,ENE,63,0.0,5.0,44,0.00,,---,0.00,VWS V14.01,2013-12-29 10:18:00,
2013-12-29 02:23:00,49.8,28.8,30.02,ENE,63,1.0,5.0,44,0.00,,---,0.00,VWS V14.01,2013-12-29 10:23:00,
2013-12-29 02:28:00,49.4,29.0,30.02,NE,37,0.0,5.0,45,0.00,,---,0.00,VWS V14.01,2013-12-29 10:28:00,
2013-12-29 02:33:00,48.9,29.6,30.02,NE,37,0.0,5.0,47,0.00,,---,0.00,VWS V14.01,2013-12-29 10:33:00,
2013-12-29 02:38:00,47.6,29.9,30.02,NE,37,0.0,0.0,50,0.00,,---,0.00,VWS V14.01,2013-12-29 10:38:00,
2013-12-29 02:43:00,46.2,29.6,30.02,NE,37,0.0,0.0,52,0.00,,---,0.00,VWS V14.01,2013-12-29 10:43:00,
2013-12-29 02:48:00,45.2,29.1,30.02,NE,37,0.0,0.0,53,0.00,,---,0.00,VWS V14.01,2013-12-29 10:48:00,
2013-12-29 02:53:00,44.5,29.4,30.02,NE,37,0.0,0.0,55,0.00,,---,0.00,VWS V14.01,2013-12-29 10:53:00,
2013-12-29 02:58:00,43.8,29.1,30.02,NE,37,0.0,0.0,56,0.00,,---,0.00,VWS V14.01,2013-12-29 10:58:00,
2013-12-29 03:03:00,43.2,29.0,30.02,NE,37,0.0,0.0,57,0.00,,---,0.00,VWS V14.01,2013-12-29 11:03:00,
2013-12-29 03:09:00,43.1,29.3,30.02,NE,37,0.0,0.0,58,0.00,,---,0.00,VWS V14.01,2013-12-29 11:09:00,
2013-12-29 03:14:00,42.9,29.2,30.02,NE,37,0.0,0.0,58,0.00,,---,0.00,VWS V14.01,2013-12-29 11:14:00,
2013-12-29 03:19:00,42.9,28.7,30.02,NE,37,0.0,0.0,57,0.00,,---,0.00,VWS V14.01,2013-12-29 11:19:00,
2013-12-29 03:24:00,42.8,29.1,30.02,NE,37,0.0,0.0,58,0.00,,---,0.00,VWS V14.01,2013-12-29 11:24:00,
2013-12-29 03:29:00,42.5,28.8,30.02,NE,37,0.0,0.0,58,0.00,,---,0.00,VWS V14.01,2013-12-29 11:29:00,
2013-12-29 03:34:00,42.2,28.5,30.03,NE,37,0.0,0.0,58,0.00,,---,0.00,VWS V14.01,2013-12-29 11:34:00,
2013-12-29 03:39:00,42.3,28.2,30.03,NE,37,0.0,0.0,57,0.00,,---,0.00,VWS V14.01,2013-12-29 11:39:00,
2013-12-29 03:44:00,42.6,28.0,30.03,NE,37,0.0,0.0,56,0.00,,---,0.00,VWS V14.01,2013-12-29 11:44:00,
2013-12-29 03:49:00,43.1,27.6,30.02,NE,37,0.0,2.0,54,0.00,,---,0.00,VWS V14.01,2013-12-29 11:49:00,
2013-12-29 03:54:00,43.1,28.0,30.02,ENE,57,3.0,3.0,55,0.00,,---,0.00,VWS V14.01,2013-12-29 11:54:00,
2013-12-29 03:59:00,42.8,27.8,30.02,ENE,57,0.0,3.0,55,0.00,,---,0.00,VWS V14.01,2013-12-29 11:59:00,
2013-12-29 04:04:00,42.6,27.6,30.02,ESE,118,0.0,2.0,55,0.00,,---,0.00,VWS V14.01,2013-12-29 12:04:00,
2013-12-29 04:09:00,43.1,27.6,30.02,ENE,58,1.0,5.0,54,0.00,,---,0.00,VWS V14.01,2013-12-29 12:09:00,
2013-12-29 04:14:00,43.2,27.7,30.02,ENE,58,0.0,5.0,54,0.00,,---,0.00,VWS V14.01,2013-12-29 12:14:00,
2013-12-29 04:20:00,43.1,27.6,30.02,ENE,59,0.0,5.0,54,0.00,,---,0.00,VWS V14.01,2013-12-29 12:20:00,
2013-12-29 04:25:00,42.8,27.8,30.02,ENE,59,0.0,5.0,55,0.00,,---,0.00,VWS V14.01,2013-12-29 12:25:00,
2013-12-29 04:30:00,42.8,28.2,30.02,ENE,59,0.0,5.0,56,0.00,,---,0.00,VWS V14.01,2013-12-29 12:30:00,
2013-12-29 04:35:00,42.6,28.0,30.03,ENE,59,0.0,0.0,56,0.00,,---,0.00,VWS V14.01,2013-12-29 12:35:00,
2013-12-29 04:40:00,42.3,28.2,30.03,ENE,59,0.0,0.0,57,0.00,,---,0.00,VWS V14.01,2013-12-29 12:40:00,
2013-12-29 04:45:00,42.1,28.0,30.03,ENE,59,0.0,0.0,57,0.00,,---,0.00,VWS V14.01,2013-12-29 12:45:00,
2013-12-29 04:50:00,41.9,28.2,30.02,ENE,59,0.0,1.0,58,0.00,,---,0.00,VWS V14.01,2013-12-29 12:50:00,
2013-12-29 04:55:00,41.5,28.3,30.02,ENE,59,0.0,1.0,59,0.00,,---,0.00,VWS V14.01,2013-12-29 12:55:00,
2013-12-29 05:01:00,41.1,28.3,30.02,ENE,59,0.0,1.0,60,0.00,,---,0.00,VWS V14.01,2013-12-29 13:01:00,
2013-12-29 05:06:00,40.9,28.1,30.02,ENE,59,0.0,0.0,60,0.00,,---,0.00,VWS V14.01,2013-12-29 13:06:00,
2013-12-29 05:11:00,41.1,28.3,30.02,ENE,59,0.0,0.0,60,0.00,,---,0.00,VWS V14.01,2013-12-29 13:11:00,
2013-12-29 05:16:00,41.3,28.1,30.02,ENE,59,0.0,0.0,59,0.00,,---,0.00,VWS V14.01,2013-12-29 13:16:00,
2013-12-29 05:21:00,41.5,28.3,30.03,ENE,59,0.0,0.0,59,0.00,,---,0.00,VWS V14.01,2013-12-29 13:21:00,
2013-12-29 05:26:00,41.8,28.1,30.03,ENE,59,0.0,1.0,58,0.00,,---,0.00,VWS V14.01,2013-12-29 13:26:00,
2013-12-29 05:31:00,42.1,28.0,30.03,ENE,59,0.0,1.0,57,0.00,,---,0.00,VWS V14.01,2013-12-29 13:31:00,
2013-12-29 05:36:00,42.2,28.1,30.03,ENE,59,0.0,0.0,57,0.00,,---,0.00,VWS V14.01,2013-12-29 13:36:00,
2013-12-29 05:41:00,42.1,28.0,30.03,ENE,59,0.0,0.0,57,0.00,,---,0.00,VWS V14.01,2013-12-29 13:41:00,
2013-12-29 05:46:00,41.8,27.7,30.03,ENE,59,0.0,0.0,57,0.00,,---,0.00,VWS V14.01,2013-12-29 13:46:00,
2013-12-29 05:51:00,41.3,27.6,30.03,ENE,59,0.0,0.0,58,0.00,,---,0.00,VWS V14.01,2013-12-29 13:51:00,
2013-12-29 05:57:00,40.6,27.8,30.03,ENE,59,0.0,0.0,60,0.00,,---,0.00,VWS V14.01,2013-12-29 13:57:00,
2013-12-29 06:02:00,40.1,28.1,30.03,ENE,59,0.0,0.0,62,0.00,,---,0.00,VWS V14.01,2013-12-29 14:02:00,
2013-12-29 06:07:00,39.3,27.8,30.04,ENE,59,0.0,0.0,63,0.00,,---,0.00,VWS V14.01,2013-12-29 14:07:00,
2013-12-29 06:12:00,39.1,27.6,30.04,ENE,59,0.0,0.0,63,0.00,,---,0.00,VWS V14.01,2013-12-29 14:12:00,
2013-12-29 06:17:00,38.8,27.7,30.04,ENE,59,0.0,0.0,64,0.00,,---,0.00,VWS V14.01,2013-12-29 14:17:00,
2013-12-29 06:22:00,38.6,27.9,30.04,ENE,59,0.0,0.0,65,0.00,,---,0.00,VWS V14.01,2013-12-29 14:22:00,
2013-12-29 06:27:00,38.5,27.8,30.04,ENE,59,0.0,0.0,65,0.00,,---,0.00,VWS V14.01,2013-12-29 14:27:00,
2013-12-29 06:32:00,38.3,27.6,30.04,ENE,59,0.0,0.0,65,0.00,,---,0.00,VWS V14.01,2013-12-29 14:32:00,
2013-12-29 06:37:00,38.3,27.6,30.04,ENE,59,0.0,0.0,65,0.00,,---,0.00,VWS V14.01,2013-12-29 14:37:00,
2013-12-29 06:42:00,38.2,27.5,30.04,ENE,59,0.0,0.0,65,0.00,,---,0.00,VWS V14.01,2013-12-29 14:42:00,
2013-12-29 06:47:00,38.0,27.3,30.04,ENE,59,0.0,0.0,65,0.00,,---,0.00,VWS V14.01,2013-12-29 14:47:00,
2013-12-29 06:52:00,38.0,27.7,30.04,ENE,59,0.0,0.0,66,0.00,,---,0.00,VWS V14.01,2013-12-29 14:52:00,
2013-12-29 06:57:00,38.0,27.7,30.04,ENE,59,0.0,0.0,66,0.00,,---,0.00,VWS V14.01,2013-12-29 14:57:00,
2013-12-29 07:02:00,38.2,27.5,30.04,ENE,59,0.0,0.0,65,0.00,,---,0.00,VWS V14.01,2013-12-29 15:02:00,
2013-12-29 07:07:00,38.6,27.9,30.04,ENE,59,0.0,0.0,65,0.00,,---,0.00,VWS V14.01,2013-12-29 15:07:00,
2013-12-29 07:12:00,38.8,28.1,30.04,East,82,0.0,4.0,65,0.00,,---,0.00,VWS V14.01,2013-12-29 15:12:00,
2013-12-29 07:18:00,40.2,27.8,30.04,NE,49,0.0,8.0,61,0.00,,---,0.00,VWS V14.01,2013-12-29 15:18:00,
2013-12-29 07:23:00,40.8,28.0,30.04,NE,49,0.0,8.0,60,0.00,,---,0.00,VWS V14.01,2013-12-29 15:23:00,
2013-12-29 07:28:00,40.8,28.0,30.04,NE,49,0.0,8.0,60,0.00,,---,0.00,VWS V14.01,2013-12-29 15:28:00,
2013-12-29 07:33:00,40.6,27.8,30.05,East,88,0.0,8.0,60,0.00,,---,0.00,VWS V14.01,2013-12-29 15:33:00,
2013-12-29 07:38:00,40.3,27.9,30.05,East,88,0.0,0.0,61,0.00,,---,0.00,VWS V14.01,2013-12-29 15:38:00,
2013-12-29 07:43:00,40.1,27.8,30.05,East,92,4.0,4.0,61,0.00,,---,0.00,VWS V14.01,2013-12-29 15:43:00,
2013-12-29 07:48:00,39.9,27.6,30.05,SE,127,0.0,4.0,61,0.00,,---,0.00,VWS V14.01,2013-12-29 15:48:00,
2013-12-29 07:53:00,40.1,27.4,30.05,ENE,63,0.0,4.0,60,0.00,,---,0.00,VWS V14.01,2013-12-29 15:53:00,
2013-12-29 07:58:00,40.2,27.4,30.05,ENE,74,0.0,4.0,60,0.00,,---,0.00,VWS V14.01,2013-12-29 15:58:00,
2013-12-29 08:03:00,40.3,27.1,30.05,ENE,74,0.0,0.0,59,0.00,,---,0.00,VWS V14.01,2013-12-29 16:03:00,
2013-12-29 08:08:00,40.3,27.1,30.05,ENE,74,0.0,3.0,59,0.00,,---,0.00,VWS V14.01,2013-12-29 16:08:00,
2013-12-29 08:13:00,40.6,27.4,30.05,ENE,64,4.0,6.0,59,0.00,,---,0.00,VWS V14.01,2013-12-29 16:13:00,
2013-12-29 08:19:00,41.1,27.5,30.05,ENE,69,2.0,6.0,58,0.00,,---,0.00,VWS V14.01,2013-12-29 16:19:00,
2013-12-29 08:24:00,41.3,27.2,30.05,ENE,69,0.0,6.0,57,0.00,,---,0.00,VWS V14.01,2013-12-29 16:24:00,
2013-12-29 08:29:00,42.1,27.5,30.05,ENE,69,0.0,6.0,56,0.00,,---,0.00,VWS V14.01,2013-12-29 16:29:00,
2013-12-29 08:34:00,42.9,27.9,30.06,NE,45,0.0,1.0,55,0.00,,---,0.00,VWS V14.01,2013-12-29 16:34:00,
2013-12-29 08:39:00,44.1,28.1,30.06,ENE,69,4.0,6.0,53,0.00,,---,0.00,VWS V14.01,2013-12-29 16:39:00,
2013-12-29 08:44:00,45.4,28.4,30.06,ENE,69,0.0,6.0,51,0.00,,---,0.00,VWS V14.01,2013-12-29 16:44:00,
2013-12-29 08:49:00,46.4,28.8,30.07,ENE,69,0.0,6.0,50,0.00,,---,0.00,VWS V14.01,2013-12-29 16:49:00,
2013-12-29 08:54:00,46.8,28.7,30.07,ENE,61,5.0,6.0,49,0.00,,---,0.00,VWS V14.01,2013-12-29 16:54:00,
2013-12-29 08:59:00,47.1,28.9,30.07,NE,54,0.0,6.0,49,0.00,,---,0.00,VWS V14.01,2013-12-29 16:59:00,
2013-12-29 09:04:00,47.1,28.9,30.07,NE,55,0.0,0.0,49,0.00,,---,0.00,VWS V14.01,2013-12-29 17:04:00,
2013-12-29 09:09:00,47.6,28.9,30.07,ENE,73,0.0,4.0,48,0.00,,---,0.00,VWS V14.01,2013-12-29 17:09:00,
2013-12-29 09:14:00,48.5,29.2,30.07,NE,48,2.0,5.0,47,0.00,,---,0.00,VWS V14.01,2013-12-29 17:14:00,
2013-12-29 09:19:00,49.5,29.1,30.07,NE,42,3.0,5.0,45,0.00,,---,0.00,VWS V14.01,2013-12-29 17:19:00,
2013-12-29 09:24:00,50.8,28.5,30.07,NE,54,5.0,7.0,42,0.00,,---,0.00,VWS V14.01,2013-12-29 17:24:00,
2013-12-29 09:29:00,52.0,28.5,30.07,NE,34,4.0,7.0,40,0.00,,---,0.00,VWS V14.01,2013-12-29 17:29:00,
2013-12-29 09:35:00,52.9,28.0,30.08,East,92,7.0,7.0,38,0.00,,---,0.00,VWS V14.01,2013-12-29 17:35:00,
2013-12-29 09:40:00,53.5,27.9,30.08,East,90,7.0,11.0,37,0.00,,---,0.00,VWS V14.01,2013-12-29 17:40:00,
2013-12-29 09:45:00,53.8,28.2,30.08,ENE,66,4.0,11.0,37,0.00,,---,0.00,VWS V14.01,2013-12-29 17:45:00,
2013-12-29 09:50:00,54.2,27.9,30.08,ENE,71,3.0,11.0,36,0.00,,---,0.00,VWS V14.01,2013-12-29 17:50:00,
2013-12-29 09:55:00,54.7,27.6,30.08,East,93,2.0,11.0,35,0.00,,---,0.00,VWS V14.01,2013-12-29 17:55:00,
2013-12-29 10:00:00,55.3,26.7,30.08,SE,126,4.0,11.0,33,0.00,,---,0.00,VWS V14.01,2013-12-29 18:00:00,
2013-12-29 10:05:00,55.7,27.1,30.08,ENE,73,2.0,6.0,33,0.00,,---,0.00,VWS V14.01,2013-12-29 18:05:00,
2013-12-29 10:10:00,56.0,26.6,30.08,ENE,77,0.0,8.0,32,0.00,,---,0.00,VWS V14.01,2013-12-29 18:10:00,
2013-12-29 10:15:00,56.5,27.0,30.08,East,86,0.0,8.0,32,0.00,,---,0.00,VWS V14.01,2013-12-29 18:15:00,
2013-12-29 10:20:00,56.9,27.4,30.08,NE,56,0.0,8.0,32,0.00,,---,0.00,VWS V14.01,2013-12-29 18:20:00,
2013-12-29 10:25:00,57.5,26.3,30.08,ENE,74,4.0,8.0,30,0.00,,---,0.00,VWS V14.01,2013-12-29 18:25:00,
2013-12-29 10:30:00,58.3,24.5,30.08,ENE,75,6.0,11.0,27,0.00,,---,0.00,VWS V14.01,2013-12-29 18:30:00,
2013-12-29 10:35:00,58.9,25.0,30.08,ENE,73,2.0,11.0,27,0.00,,---,0.00,VWS V14.01,2013-12-29 18:35:00,
2013-12-29 10:40:00,59.6,25.6,30.08,ENE,63,5.0,11.0,27,0.00,,---,0.00,VWS V14.01,2013-12-29 18:40:00,
2013-12-29 10:46:00,59.8,24.9,30.08,ENE,72,5.0,11.0,26,0.00,,---,0.00,VWS V14.01,2013-12-29 18:46:00,
2013-12-29 10:51:00,60.1,25.1,30.08,ENE,62,0.0,11.0,26,0.00,,---,0.00,VWS V14.01,2013-12-29 18:51:00,
2013-12-29 10:56:00,60.5,24.5,30.08,ENE,66,6.0,11.0,25,0.00,,---,0.00,VWS V14.01,2013-12-29 18:56:00,
2013-12-29 11:01:00,60.7,24.7,30.08,East,90,0.0,11.0,25,0.00,,---,0.00,VWS V14.01,2013-12-29 19:01:00,
2013-12-29 11:06:00,61.0,25.0,30.08,ESE,103,0.0,6.0,25,0.00,,---,0.00,VWS V14.01,2013-12-29 19:06:00,
2013-12-29 11:11:00,61.5,24.4,30.08,ENE,64,1.0,7.0,24,0.00,,---,0.00,VWS V14.01,2013-12-29 19:11:00,
2013-12-29 11:16:00,61.8,24.6,30.08,ENE,71,5.0,11.0,24,0.00,,---,0.00,VWS V14.01,2013-12-29 19:16:00,
2013-12-29 11:21:00,62.0,24.8,30.07,NE,54,0.0,11.0,24,0.00,,---,0.00,VWS V14.01,2013-12-29 19:21:00,
2013-12-29 11:26:00,62.3,24.1,30.07,ENE,65,5.0,11.0,23,0.00,,---,0.00,VWS V14.01,2013-12-29 19:26:00,
2013-12-29 11:31:00,62.6,24.3,30.07,ENE,70,0.0,11.0,23,0.00,,---,0.00,VWS V14.01,2013-12-29 19:31:00,
2013-12-29 11:36:00,62.9,24.6,30.05,NE,55,5.0,7.0,23,0.00,,---,0.00,VWS V14.01,2013-12-29 19:36:00,
2013-12-29 11:42:00,63.2,24.8,30.05,ENE,67,5.0,8.0,23,0.00,,---,0.00,VWS V14.01,2013-12-29 19:42:00,
2013-12-29 11:47:00,63.4,23.9,30.05,ENE,63,0.0,10.0,22,0.00,,---,0.00,VWS V14.01,2013-12-29 19:47:00,
2013-12-29 11:52:00,63.5,25.1,30.05,ENE,60,3.0,10.0,23,0.00,,---,0.00,VWS V14.01,2013-12-29 19:52:00,
2013-12-29 11:57:00,63.9,26.4,30.05,ENE,71,5.0,10.0,24,0.00,,---,0.00,VWS V14.01,2013-12-29 19:57:00,
2013-12-29 12:02:00,63.9,26.4,30.05,NE,55,0.0,10.0,24,0.00,,---,0.00,VWS V14.01,2013-12-29 20:02:00,
2013-12-29 12:07:00,64.0,26.5,30.05,East,84,10.0,10.0,24,0.00,,---,0.00,VWS V14.01,2013-12-29 20:07:00,
2013-12-29 12:12:00,64.2,26.7,30.05,ENE,78,0.0,10.0,24,0.00,,---,0.00,VWS V14.01,2013-12-29 20:12:00,
2013-12-29 12:17:00,64.2,26.7,30.04,ENE,70,3.0,11.0,24,0.00,,---,0.00,VWS V14.01,2013-12-29 20:17:00,
2013-12-29 12:22:00,64.5,26.9,30.04,ENE,72,3.0,12.0,24,0.00,,---,0.00,VWS V14.01,2013-12-29 20:22:00,
2013-12-29 12:27:00,64.8,27.2,30.04,ESE,112,5.0,12.0,24,0.00,,---,0.00,VWS V14.01,2013-12-29 20:27:00,
2013-12-29 12:32:00,65.3,27.6,30.04,ENE,72,0.0,13.0,24,0.00,,---,0.00,VWS V14.01,2013-12-29 20:32:00,
2013-12-29 12:37:00,65.8,28.0,30.04,ENE,63,0.0,8.0,24,0.00,,---,0.00,VWS V14.01,2013-12-29 20:37:00,
2013-12-29 12:43:00,66.0,27.2,30.04,ENE,77,1.0,11.0,23,0.00,,---,0.00,VWS V14.01,2013-12-29 20:43:00,
2013-12-29 12:48:00,66.3,26.4,30.03,ENE,68,3.0,11.0,22,0.00,,---,0.00,VWS V14.01,2013-12-29 20:48:00,
2013-12-29 12:53:00,66.6,26.6,30.03,ENE,75,1.0,11.0,22,0.00,,---,0.00,VWS V14.01,2013-12-29 20:53:00,
2013-12-29 12:58:00,67.1,27.0,30.03,ENE,59,0.0,11.0,22,0.00,,---,0.00,VWS V14.01,2013-12-29 20:58:00,
2013-12-29 13:03:00,67.3,27.2,30.02,NE,53,5.0,11.0,22,0.00,,---,0.00,VWS V14.01,2013-12-29 21:03:00,
2013-12-29 13:08:00,67.4,27.3,30.02,East,92,2.0,6.0,22,0.00,,---,0.00,VWS V14.01,2013-12-29 21:08:00,
2013-12-29 13:13:00,67.6,27.4,30.02,ENE,65,6.0,6.0,22,0.00,,---,0.00,VWS V14.01,2013-12-29 21:13:00,
2013-12-29 13:18:00,67.6,27.4,30.02,East,86,1.0,7.0,22,0.00,,---,0.00,VWS V14.01,2013-12-29 21:18:00,
2013-12-29 13:23:00,67.6,27.4,30.02,NE,50,8.0,8.0,22,0.00,,---,0.00,VWS V14.01,2013-12-29 21:23:00,
2013-12-29 13:28:00,67.8,27.6,30.02,NE,44,6.0,8.0,22,0.00,,---,0.00,VWS V14.01,2013-12-29 21:28:00,
2013-12-29 13:33:00,67.9,27.7,30.01,ENE,67,3.0,4.0,22,0.00,,---,0.00,VWS V14.01,2013-12-29 21:33:00,
2013-12-29 13:38:00,67.9,27.7,30.01,ENE,69,6.0,8.0,22,0.00,,---,0.00,VWS V14.01,2013-12-29 21:38:00,
2013-12-29 13:43:00,67.8,27.6,30.01,NE,55,2.0,12.0,22,0.00,,---,0.00,VWS V14.01,2013-12-29 21:43:00,
2013-12-29 13:49:00,67.8,27.6,30.00,NE,37,6.0,12.0,22,0.00,,---,0.00,VWS V14.01,2013-12-29 21:49:00,
2013-12-29 13:54:00,67.9,27.7,30.00,NE,46,2.0,12.0,22,0.00,,---,0.00,VWS V14.01,2013-12-29 21:54:00,
2013-12-29 13:59:00,68.1,26.7,30.00,NE,41,3.0,12.0,21,0.00,,---,0.00,VWS V14.01,2013-12-29 21:59:00,
2013-12-29 14:04:00,68.4,27.0,30.00,NE,55,7.0,7.0,21,0.00,,---,0.00,VWS V14.01,2013-12-29 22:04:00,
2013-12-29 14:09:00,68.4,27.0,30.00,NE,39,3.0,10.0,21,0.00,,---,0.00,VWS V14.01,2013-12-29 22:09:00,
2013-12-29 14:14:00,68.6,27.1,30.00,NE,47,3.0,10.0,21,0.00,,---,0.00,VWS V14.01,2013-12-29 22:14:00,
2013-12-29 14:19:00,68.8,27.3,30.00,ENE,63,0.0,10.0,21,0.00,,---,0.00,VWS V14.01,2013-12-29 22:19:00,
2013-12-29 14:24:00,68.9,27.4,30.00,NE,55,1.0,10.0,21,0.00,,---,0.00,VWS V14.01,2013-12-29 22:24:00,
2013-12-29 14:29:00,69.1,27.6,30.00,ENE,57,2.0,10.0,21,0.00,,---,0.00,VWS V14.01,2013-12-29 22:29:00,
2013-12-29 14:34:00,69.3,27.7,30.00,NE,47,1.0,7.0,21,0.00,,---,0.00,VWS V14.01,2013-12-29 22:34:00,
2013-12-29 14:39:00,69.3,27.7,30.00,NE,51,7.0,7.0,21,0.00,,---,0.00,VWS V14.01,2013-12-29 22:39:00,
2013-12-29 14:44:00,69.4,27.8,30.00,ENE,77,0.0,7.0,21,0.00,,---,0.00,VWS V14.01,2013-12-29 22:44:00,
2013-12-29 14:49:00,69.6,28.0,30.01,East,96,0.0,7.0,21,0.00,,---,0.00,VWS V14.01,2013-12-29 22:49:00,
2013-12-29 14:54:00,69.6,28.0,30.01,ENE,77,0.0,7.0,21,0.00,,---,0.00,VWS V14.01,2013-12-29 22:54:00,
2013-12-29 14:59:00,69.6,28.0,30.01,ENE,76,0.0,7.0,21,0.00,,---,0.00,VWS V14.01,2013-12-29 22:59:00,
2013-12-29 15:05:00,69.6,28.0,30.00,ENE,76,0.0,8.0,21,0.00,,---,0.00,VWS V14.01,2013-12-29 23:05:00,
2013-12-29 15:10:00,69.4,27.8,30.00,East,79,1.0,8.0,21,0.00,,---,0.00,VWS V14.01,2013-12-29 23:10:00,
2013-12-29 15:15:00,69.4,27.8,30.00,NE,49,2.0,8.0,21,0.00,,---,0.00,VWS V14.01,2013-12-29 23:15:00,
2013-12-29 15:20:00,69.4,27.8,30.01,ENE,69,0.0,8.0,21,0.00,,---,0.00,VWS V14.01,2013-12-29 23:20:00,
2013-12-29 15:25:00,69.4,27.8,30.01,ENE,65,0.0,8.0,21,0.00,,---,0.00,VWS V14.01,2013-12-29 23:25:00,
2013-12-29 15:30:00,69.4,27.8,30.01,ENE,65,1.0,8.0,21,0.00,,---,0.00,VWS V14.01,2013-12-29 23:30:00,
2013-12-29 15:35:00,69.4,27.8,30.01,ENE,65,0.0,0.0,21,0.00,,---,0.00,VWS V14.01,2013-12-29 23:35:00,
2013-12-29 15:40:00,69.3,27.7,30.01,NE,54,0.0,5.0,21,0.00,,---,0.00,VWS V14.01,2013-12-29 23:40:00,
2013-12-29 15:45:00,68.9,28.5,30.01,NE,55,2.0,5.0,22,0.00,,---,0.00,VWS V14.01,2013-12-29 23:45:00,
2013-12-29 15:50:00,68.6,28.3,30.00,NE,55,0.0,5.0,22,0.00,,---,0.00,VWS V14.01,2013-12-29 23:50:00,
2013-12-29 15:55:00,67.9,28.8,30.00,NE,56,0.0,5.0,23,0.00,,---,0.00,VWS V14.01,2013-12-29 23:55:00,
2013-12-29 16:01:00,67.1,28.1,30.00,ENE,59,0.0,5.0,23,0.00,,---,0.00,VWS V14.01,2013-12-30 00:01:00,
2013-12-29 16:06:00,66.3,29.5,30.00,ENE,59,0.0,0.0,25,0.00,,---,0.00,VWS V14.01,2013-12-30 00:06:00,
2013-12-29 16:11:00,65.6,28.9,30.00,SE,126,2.0,2.0,25,0.00,,---,0.00,VWS V14.01,2013-12-30 00:11:00,
2013-12-29 16:16:00,65.2,28.5,30.00,East,95,0.0,4.0,25,0.00,,---,0.00,VWS V14.01,2013-12-30 00:16:00,
2013-12-29 16:21:00,64.7,29.0,30.01,East,95,0.0,4.0,26,0.00,,---,0.00,VWS V14.01,2013-12-30 00:21:00,
2013-12-29 16:26:00,64.3,28.7,30.01,ESE,114,0.0,5.0,26,0.00,,---,0.00,VWS V14.01,2013-12-30 00:26:00,
2013-12-29 16:31:00,63.5,29.0,30.01,ESE,117,0.0,5.0,27,0.00,,---,0.00,VWS V14.01,2013-12-30 00:31:00,
2013-12-29 16:36:00,63.2,28.7,30.01,ESE,122,0.0,0.0,27,0.00,,---,0.00,VWS V14.01,2013-12-30 00:36:00,
2013-12-29 16:41:00,62.3,28.8,30.01,ESE,122,0.0,0.0,28,0.00,,---,0.00,VWS V14.01,2013-12-30 00:41:00,
2013-12-29 16:46:00,61.6,28.2,30.01,ESE,121,0.0,5.0,28,0.00,,---,0.00,VWS V14.01,2013-12-30 00:46:00,
2013-12-29 16:51:00,61.3,27.9,30.01,SE,124,0.0,5.0,28,0.00,,---,0.00,VWS V14.01,2013-12-30 00:51:00,
2013-12-29 16:56:00,61.0,27.7,30.01,SE,124,0.0,5.0,28,0.00,,---,0.00,VWS V14.01,2013-12-30 00:56:00,
2013-12-29 17:01:00,60.7,28.3,30.01,SE,126,0.0,5.0,29,0.00,,---,0.00,VWS V14.01,2013-12-30 01:01:00,
2013-12-29 17:06:00,60.2,27.9,30.01,SE,146,0.0,4.0,29,0.00,,---,0.00,VWS V14.01,2013-12-30 01:06:00,
2013-12-29 17:12:00,60.1,26.9,30.01,SE,138,0.0,4.0,28,0.00,,---,0.00,VWS V14.01,2013-12-30 01:12:00,
2013-12-29 17:17:00,59.8,28.3,30.01,SE,138,0.0,4.0,30,0.00,,---,0.00,VWS V14.01,2013-12-30 01:17:00,
2013-12-29 17:22:00,59.3,27.9,30.02,SE,138,0.0,4.0,30,0.00,,---,0.00,VWS V14.01,2013-12-30 01:22:00,
2013-12-29 17:27:00,58.9,28.3,30.02,SE,138,0.0,4.0,31,0.00,,---,0.00,VWS V14.01,2013-12-30 01:27:00,
2013-12-29 17:32:00,58.3,28.6,30.02,SE,138,0.0,4.0,32,0.00,,---,0.00,VWS V14.01,2013-12-30 01:32:00,
2013-12-29 17:35:00,57.8,28.2,30.02,SE,138,0.0,0.0,32,0.00,,---,0.00,VWS V14.01,2013-12-30 01:35:00,
2013-12-29 17:40:00,57.2,29.1,30.02,SE,138,0.0,0.0,34,0.00,,---,0.00,VWS V14.01,2013-12-30 01:40:00,
2013-12-29 17:45:00,56.9,28.1,30.02,SE,138,0.0,0.0,33,0.00,,---,0.00,VWS V14.01,2013-12-30 01:45:00,
2013-12-29 17:50:00,56.7,27.9,30.03,SE,138,0.0,0.0,33,0.00,,---,0.00,VWS V14.01,2013-12-30 01:50:00,
2013-12-29 17:55:00,56.6,28.6,30.03,SE,138,0.0,0.0,34,0.00,,---,0.00,VWS V14.01,2013-12-30 01:55:00,
2013-12-29 18:00:00,56.5,28.5,30.03,SE,138,0.0,0.0,34,0.00,,---,0.00,VWS V14.01,2013-12-30 02:00:00,
2013-12-29 18:05:00,56.0,28.0,30.04,SE,138,0.0,0.0,34,0.00,,---,0.00,VWS V14.01,2013-12-30 02:05:00,
2013-12-29 18:10:00,55.7,27.8,30.04,SE,138,0.0,0.0,34,0.00,,---,0.00,VWS V14.01,2013-12-30 02:10:00,
2013-12-29 18:15:00,55.4,28.2,30.04,SE,138,0.0,0.0,35,0.00,,---,0.00,VWS V14.01,2013-12-30 02:15:00,
2013-12-29 18:21:00,55.1,28.6,30.05,SE,138,0.0,0.0,36,0.00,,---,0.00,VWS V14.01,2013-12-30 02:21:00,
2013-12-29 18:26:00,55.1,28.6,30.05,SE,138,0.0,0.0,36,0.00,,---,0.00,VWS V14.01,2013-12-30 02:26:00,
2013-12-29 18:31:00,55.0,29.2,30.05,SE,138,0.0,0.0,37,0.00,,---,0.00,VWS V14.01,2013-12-30 02:31:00,
2013-12-29 18:36:00,54.8,29.0,30.05,SE,138,0.0,0.0,37,0.00,,---,0.00,VWS V14.01,2013-12-30 02:36:00,
2013-12-29 18:41:00,54.8,29.0,30.05,SE,138,0.0,0.0,37,0.00,,---,0.00,VWS V14.01,2013-12-30 02:41:00,
2013-12-29 18:46:00,54.7,29.0,30.05,SE,138,0.0,0.0,37,0.00,,---,0.00,VWS V14.01,2013-12-30 02:46:00,
2013-12-29 18:51:00,54.5,29.4,30.05,SE,138,0.0,0.0,38,0.00,,---,0.00,VWS V14.01,2013-12-30 02:51:00,
2013-12-29 18:56:00,54.4,29.3,30.05,SE,138,0.0,0.0,38,0.00,,---,0.00,VWS V14.01,2013-12-30 02:56:00,
2013-12-29 19:01:00,53.8,29.4,30.05,SE,138,0.0,0.0,39,0.00,,---,0.00,VWS V14.01,2013-12-30 03:01:00,
2013-12-29 19:06:00,53.1,29.4,30.06,SE,138,0.0,0.0,40,0.00,,---,0.00,VWS V14.01,2013-12-30 03:06:00,
2013-12-29 19:11:00,52.5,29.5,30.06,SE,138,0.0,0.0,41,0.00,,---,0.00,VWS V14.01,2013-12-30 03:11:00,
2013-12-29 19:16:00,52.3,29.3,30.06,SE,138,0.0,0.0,41,0.00,,---,0.00,VWS V14.01,2013-12-30 03:16:00,
2013-12-29 19:21:00,52.0,29.6,30.06,SE,138,0.0,0.0,42,0.00,,---,0.00,VWS V14.01,2013-12-30 03:21:00,
2013-12-29 19:26:00,51.9,29.5,30.06,SE,138,0.0,0.0,42,0.00,,---,0.00,VWS V14.01,2013-12-30 03:26:00,
2013-12-29 19:31:00,51.9,29.5,30.06,SE,138,0.0,0.0,42,0.00,,---,0.00,VWS V14.01,2013-12-30 03:31:00,
2013-12-29 19:37:00,51.7,29.4,30.07,SE,138,0.0,0.0,42,0.00,,---,0.00,VWS V14.01,2013-12-30 03:37:00,
2013-12-29 19:42:00,51.4,29.7,30.07,SE,138,0.0,0.0,43,0.00,,---,0.00,VWS V14.01,2013-12-30 03:42:00,
2013-12-29 19:47:00,51.1,29.4,30.07,SE,138,0.0,0.0,43,0.00,,---,0.00,VWS V14.01,2013-12-30 03:47:00,
2013-12-29 19:52:00,50.8,29.1,30.06,SE,138,0.0,1.0,43,0.00,,---,0.00,VWS V14.01,2013-12-30 03:52:00,
2013-12-29 19:57:00,50.7,29.6,30.06,ENE,71,0.0,5.0,44,0.00,,---,0.00,VWS V14.01,2013-12-30 03:57:00,
2013-12-29 20:02:00,50.8,28.5,30.06,ENE,71,0.0,5.0,42,0.00,,---,0.00,VWS V14.01,2013-12-30 04:02:00,
2013-12-29 20:07:00,51.1,28.8,30.06,ENE,71,0.0,0.0,42,0.00,,---,0.00,VWS V14.01,2013-12-30 04:07:00,
2013-12-29 20:12:00,51.4,28.5,30.06,ENE,71,0.0,5.0,41,0.00,,---,0.00,VWS V14.01,2013-12-30 04:12:00,
2013-12-29 20:17:00,52.2,28.0,30.06,ENE,71,4.0,5.0,39,0.00,,---,0.00,VWS V14.01,2013-12-30 04:17:00,
2013-12-29 20:22:00,53.8,27.5,30.06,East,100,5.0,5.0,36,0.00,,---,0.00,VWS V14.01,2013-12-30 04:22:00,
2013-12-29 20:27:00,55.0,27.9,30.06,SE,134,6.0,6.0,35,0.00,,---,0.00,VWS V14.01,2013-12-30 04:27:00,
2013-12-29 20:32:00,55.4,27.5,30.07,ESE,105,0.0,6.0,34,0.00,,---,0.00,VWS V14.01,2013-12-30 04:32:00,
2013-12-29 20:37:00,55.3,28.1,30.07,East,100,0.0,4.0,35,0.00,,---,0.00,VWS V14.01,2013-12-30 04:37:00,
2013-12-29 20:42:00,55.0,28.6,30.07,ENE,59,0.0,4.0,36,0.00,,---,0.00,VWS V14.01,2013-12-30 04:42:00,
2013-12-29 20:47:00,54.4,28.0,30.07,North,10,0.0,4.0,36,0.00,,---,0.00,VWS V14.01,2013-12-30 04:47:00,
2013-12-29 20:53:00,53.9,28.9,30.07,NNE,26,0.0,4.0,38,0.00,,---,0.00,VWS V14.01,2013-12-30 04:53:00,
2013-12-29 20:58:00,53.3,29.0,30.07,NNE,26,0.0,4.0,39,0.00,,---,0.00,VWS V14.01,2013-12-30 04:58:00,
2013-12-29 21:01:00,53.1,29.4,30.07,NE,41,5.0,5.0,40,0.00,,---,0.00,VWS V14.01,2013-12-30 05:01:00,
2013-12-29 21:02:00,52.9,29.0,30.07,NE,41,0.0,-999.0,40,-99.99,,,0.00,weatherlink.com 1.10,2013-12-30 05:02:00,
2013-12-29 21:03:00,52.9,29.2,30.08,NE,41,0.0,5.0,40,0.00,,---,0.00,VWS V14.01,2013-12-30 05:03:00,
2013-12-29 21:08:00,52.5,29.5,30.08,NE,41,0.0,0.0,41,0.00,,---,0.00,VWS V14.01,2013-12-30 05:08:00,
2013-12-29 21:13:00,51.7,29.4,30.08,NE,41,0.0,0.0,42,0.00,,---,0.00,VWS V14.01,2013-12-30 05:13:00,
2013-12-29 21:18:00,51.3,29.6,30.08,NE,41,0.0,0.0,43,0.00,,---,0.00,VWS V14.01,2013-12-30 05:18:00,
2013-12-29 21:23:00,50.8,29.7,30.08,NE,41,0.0,0.0,44,0.00,,---,0.00,VWS V14.01,2013-12-30 05:23:00,
2013-12-29 21:28:00,50.8,29.7,30.08,NE,41,0.0,1.0,44,0.00,,---,0.00,VWS V14.01,2013-12-30 05:28:00,
2013-12-29 21:33:00,51.0,29.9,30.08,ENE,71,0.0,0.0,44,0.00,,---,0.00,VWS V14.01,2013-12-30 05:33:00,
2013-12-29 21:38:00,51.0,29.9,30.08,ENE,71,0.0,1.0,44,0.00,,---,0.00,VWS V14.01,2013-12-30 05:38:00,
2013-12-29 21:44:00,51.4,29.1,30.08,ENE,69,0.0,4.0,42,0.00,,---,0.00,VWS V14.01,2013-12-30 05:44:00,
2013-12-29 21:48:00,52.5,29.5,30.08,East,93,0.0,4.0,41,0.00,,---,0.00,VWS V14.01,2013-12-30 05:48:00,
2013-12-29 21:53:00,53.3,29.0,30.08,East,94,4.0,7.0,39,0.00,,---,0.00,VWS V14.01,2013-12-30 05:53:00,
2013-12-29 21:59:00,53.9,28.9,30.08,East,97,0.0,7.0,38,0.00,,---,0.00,VWS V14.01,2013-12-30 05:59:00,
2013-12-29 22:04:00,54.2,29.2,30.08,SE,134,6.0,6.0,38,0.00,,---,0.00,VWS V14.01,2013-12-30 06:04:00,
2013-12-29 22:09:00,54.4,29.3,30.08,ESE,106,0.0,6.0,38,0.00,,---,0.00,VWS V14.01,2013-12-30 06:09:00,
2013-12-29 22:14:00,54.7,29.6,30.08,East,98,0.0,6.0,38,0.00,,---,0.00,VWS V14.01,2013-12-30 06:14:00,
2013-12-29 22:19:00,55.0,29.2,30.09,East,80,0.0,6.0,37,0.00,,---,0.00,VWS V14.01,2013-12-30 06:19:00,
2013-12-29 22:24:00,55.3,29.5,30.09,East,88,0.0,9.0,37,0.00,,---,0.00,VWS V14.01,2013-12-30 06:24:00,
2013-12-29 22:29:00,55.4,28.9,30.09,East,87,0.0,10.0,36,0.00,,---,0.00,VWS V14.01,2013-12-30 06:29:00,
2013-12-29 22:34:00,55.4,28.9,30.09,ESE,111,0.0,4.0,36,0.00,,---,0.00,VWS V14.01,2013-12-30 06:34:00,
2013-12-29 22:39:00,55.1,28.6,30.09,SE,140,5.0,5.0,36,0.00,,---,0.00,VWS V14.01,2013-12-30 06:39:00,
2013-12-29 22:44:00,55.0,29.2,30.09,East,99,0.0,5.0,37,0.00,,---,0.00,VWS V14.01,2013-12-30 06:44:00,
2013-12-29 22:49:00,54.7,29.0,30.09,East,100,0.0,6.0,37,0.00,,---,0.00,VWS V14.01,2013-12-30 06:49:00,
2013-12-29 22:54:00,54.7,29.0,30.09,East,82,4.0,7.0,37,0.00,,---,0.00,VWS V14.01,2013-12-30 06:54:00,
2013-12-29 22:59:00,54.5,28.8,30.09,SE,127,5.0,7.0,37,0.00,,---,0.00,VWS V14.01,2013-12-30 06:59:00,
2013-12-29 23:04:00,54.4,28.7,30.10,NE,55,5.0,7.0,37,0.00,,---,0.00,VWS V14.01,2013-12-30 07:04:00,
2013-12-29 23:10:00,54.5,28.8,30.10,East,94,0.0,7.0,37,0.00,,---,0.00,VWS V14.01,2013-12-30 07:10:00,
2013-12-29 23:15:00,54.1,28.4,30.10,ENE,64,0.0,7.0,37,0.00,,---,0.00,VWS V14.01,2013-12-30 07:15:00,
2013-12-29 23:20:00,53.6,28.6,30.10,East,86,0.0,7.0,38,0.00,,---,0.00,VWS V14.01,2013-12-30 07:20:00,
2013-12-29 23:25:00,53.1,28.2,30.10,East,82,0.0,7.0,38,0.00,,---,0.00,VWS V14.01,2013-12-30 07:25:00,
2013-12-29 23:30:00,52.0,28.5,30.10,NE,55,0.0,7.0,40,0.00,,---,0.00,VWS V14.01,2013-12-30 07:30:00,
2013-12-29 23:35:00,51.4,28.5,30.10,East,92,0.0,7.0,41,0.00,,---,0.00,VWS V14.01,2013-12-30 07:35:00,
2013-12-29 23:40:00,51.6,28.7,30.10,ENE,60,0.0,7.0,41,0.00,,---,0.00,VWS V14.01,2013-12-30 07:40:00,
2013-12-29 23:45:00,52.0,28.5,30.10,East,89,2.0,7.0,40,0.00,,---,0.00,VWS V14.01,2013-12-30 07:45:00,
2013-12-29 23:50:00,52.3,28.7,30.10,ENE,62,0.0,7.0,40,0.00,,---,0.00,VWS V14.01,2013-12-30 07:50:00,
2013-12-29 23:55:00,52.2,29.2,30.10,ENE,62,0.0,7.0,41,0.00,,---,0.00,VWS V14.01,2013-12-30 07:55:00,